Time;durP1;ratioP1;P1;durP2;ratioP2;P2;SDS_P1;SDS_P2;PMS_P1;PMS_P2;Temp;Humidity;BMP_temperature;BMP_pressure;BME280_temperature;BME280_humidity;BME280_pressure;Samples;Min_cycle;Max_cycle;Signal;HPM_P1;HPM_P2
2022/11/19 00:00:40;;;;;;;9.88;2.30;;;;;;;-144.40;100.00;60209.53;4862474;29;20050;-94
2022/11/19 00:03:06;;;;;;;8.82;2.70;;;;;;;-144.40;100.00;60209.53;4862152;29;20120;-95
2022/11/19 00:05:36;;;;;;;9.93;2.88;;;;;;;-144.40;100.00;60209.53;4862413;29;20366;-95
2022/11/19 00:08:02;;;;;;;6.32;2.03;;;;;;;-144.40;100.00;60209.53;4862364;29;20512;-95
2022/11/19 00:10:28;;;;;;;5.93;2.17;;;;;;;-144.40;100.00;60209.53;4862291;29;20030;-94
2022/11/19 00:12:53;;;;;;;8.63;2.45;;;;;;;-144.40;100.00;60209.53;4862630;29;20040;-94
2022/11/19 00:15:19;;;;;;;6.30;2.33;;;;;;;-144.40;100.00;60209.53;4862113;29;20055;-95
2022/11/19 00:17:45;;;;;;;7.63;2.53;;;;;;;-144.40;100.00;60209.53;4862133;29;20068;-94
2022/11/19 00:20:11;;;;;;;7.57;2.65;;;;;;;-144.40;100.00;60209.53;4861932;29;20053;-94
2022/11/19 00:22:36;;;;;;;11.70;3.10;;;;;;;-144.40;100.00;60209.53;4862250;29;20116;-94
2022/11/19 00:25:03;;;;;;;8.23;2.10;;;;;;;-144.40;100.00;60209.53;4862499;29;20573;-94
2022/11/19 00:27:30;;;;;;;5.45;1.80;;;;;;;-144.40;100.00;60209.53;4862444;29;20034;-93
2022/11/19 00:29:55;;;;;;;6.18;2.35;;;;;;;-144.40;100.00;60209.53;4862406;29;20120;-95
2022/11/19 00:32:21;;;;;;;9.63;2.22;;;;;;;-144.40;100.00;60209.53;4862070;29;20164;-94
2022/11/19 00:34:46;;;;;;;7.75;1.95;;;;;;;-144.40;100.00;60209.53;4862125;29;20077;-94
2022/11/19 00:37:11;;;;;;;12.20;2.72;;;;;;;-144.40;100.00;60209.53;4861903;29;20370;-94
2022/11/19 00:39:37;;;;;;;6.13;2.15;;;;;;;-144.40;100.00;60209.53;4861941;29;20120;-94
2022/11/19 00:42:03;;;;;;;11.25;2.20;;;;;;;-144.40;100.00;60209.53;4862054;29;20416;-94
2022/11/19 00:44:28;;;;;;;7.50;2.00;;;;;;;-144.40;100.00;60209.53;4861643;29;20053;-94
2022/11/19 00:46:54;;;;;;;6.80;2.97;;;;;;;-144.40;100.00;60209.53;4861687;29;20449;-94
2022/11/19 00:49:19;;;;;;;9.60;2.20;;;;;;;-144.40;100.00;60209.53;4861095;29;20061;-94
2022/11/19 00:51:45;;;;;;;7.32;2.50;;;;;;;-144.40;100.00;60209.53;4862454;29;20029;-94
2022/11/19 00:54:10;;;;;;;8.90;1.98;;;;;;;-144.40;100.00;60209.53;4863235;29;20036;-94
2022/11/19 00:56:36;;;;;;;6.10;2.08;;;;;;;-144.40;100.00;60209.53;4864061;29;20021;-95
2022/11/19 00:59:02;;;;;;;5.35;1.95;;;;;;;-144.40;100.00;60209.53;4864767;29;20025;-94
2022/11/19 01:01:27;;;;;;;6.35;2.10;;;;;;;-144.40;100.00;60209.53;4864477;29;20076;-93
2022/11/19 01:03:53;;;;;;;6.05;1.60;;;;;;;-144.40;100.00;60209.53;4864451;29;20492;-94
2022/11/19 01:06:21;;;;;;;8.68;2.20;;;;;;;-144.40;100.00;60209.53;4864233;29;20036;-94
2022/11/19 01:08:48;;;;;;;5.75;2.15;;;;;;;-144.40;100.00;60209.53;4863704;29;20033;-94
2022/11/19 01:11:20;;;;;;;11.60;2.40;;;;;;;-144.40;100.00;60209.53;4864669;29;20053;-94
2022/11/19 01:13:46;;;;;;;9.63;2.20;;;;;;;-144.40;100.00;60209.53;4863773;29;20029;-95
2022/11/19 01:16:15;;;;;;;8.77;2.65;;;;;;;-144.40;100.00;60209.53;4862895;29;20026;-94
2022/11/19 01:18:42;;;;;;;7.13;1.75;;;;;;;-144.40;100.00;60209.53;4862208;29;20060;-95
2022/11/19 01:21:10;;;;;;;7.93;1.63;;;;;;;-144.40;100.00;60209.53;4862242;29;20096;-94
2022/11/19 01:23:37;;;;;;;7.50;2.72;;;;;;;-144.40;100.00;60209.53;4862075;29;20026;-95
2022/11/19 01:26:03;;;;;;;12.02;2.88;;;;;;;-144.40;100.00;60209.53;4862364;29;20026;-94
2022/11/19 01:28:29;;;;;;;9.55;2.70;;;;;;;-144.40;100.00;60209.53;4861500;29;20507;-94
2022/11/19 01:30:55;;;;;;;7.50;2.03;;;;;;;-144.40;100.00;60209.53;4861811;29;20026;-95
2022/11/19 01:33:21;;;;;;;6.47;2.20;;;;;;;-144.40;100.00;60209.53;4861924;29;20037;-94
2022/11/19 01:36:00;;;;;;;7.32;1.80;;;;;;;-144.40;100.00;60209.53;4861644;29;20033;-94
2022/11/19 01:38:27;;;;;;;7.90;1.73;;;;;;;-144.40;100.00;60209.53;4861762;29;20040;-94
2022/11/19 01:40:54;;;;;;;3.75;1.50;;;;;;;-144.40;100.00;60209.53;4861469;29;20111;-94
2022/11/19 01:43:37;;;;;;;8.63;1.75;;;;;;;-144.40;100.00;60209.53;4860783;29;20018;-94
2022/11/19 01:46:03;;;;;;;3.38;1.85;;;;;;;-144.40;100.00;60209.53;4861434;29;20037;-93
2022/11/19 01:48:31;;;;;;;6.07;1.67;;;;;;;-144.40;100.00;60209.53;4861353;29;20028;-93
2022/11/19 01:51:20;;;;;;;7.40;2.00;;;;;;;-144.40;100.00;60209.53;4861127;29;20044;-94
2022/11/19 01:53:49;;;;;;;5.80;1.67;;;;;;;-144.40;100.00;60209.53;4861133;29;20121;-95
2022/11/19 01:56:18;;;;;;;7.05;2.20;;;;;;;-144.40;100.00;60209.53;4860943;29;20063;-94
2022/11/19 01:58:48;;;;;;;6.15;1.85;;;;;;;-144.40;100.00;60209.53;4860972;29;20030;-95
2022/11/19 02:01:16;;;;;;;10.98;1.80;;;;;;;-144.40;100.00;60209.53;4860066;29;20033;-95
2022/11/19 02:03:42;;;;;;;3.97;1.67;;;;;;;-144.40;100.00;60209.53;4861016;29;20029;-95
2022/11/19 02:06:08;;;;;;;7.60;2.08;;;;;;;-144.40;100.00;60209.53;4860971;29;20033;-95
2022/11/19 02:08:46;;;;;;;8.55;1.90;;;;;;;-144.40;100.00;60209.53;4861518;29;20038;-92
2022/11/19 02:11:45;;;;;;;5.03;1.70;;;;;;;-144.40;100.00;60209.53;4860538;29;20029;-95
2022/11/19 02:14:35;;;;;;;11.18;2.38;;;;;;;-144.40;100.00;60209.53;4860482;29;20036;-94
2022/11/19 02:17:15;;;;;;;7.05;1.98;;;;;;;-144.40;100.00;60209.53;4860367;29;20120;-95
2022/11/19 02:19:59;;;;;;;5.93;1.63;;;;;;;-144.40;100.00;60209.53;4860378;29;20124;-94
2022/11/19 02:23:03;;;;;;;8.27;2.13;;;;;;;-144.40;100.00;60209.53;4860211;29;20052;-94
2022/11/19 02:25:38;;;;;;;8.40;1.75;;;;;;;-144.40;100.00;60209.53;4859775;29;20034;-94
2022/11/19 02:28:12;;;;;;;9.32;1.90;;;;;;;-144.40;100.00;60209.53;4860154;29;20033;-94
2022/11/19 02:30:42;;;;;;;13.55;2.13;;;;;;;-144.40;100.00;60209.53;4859935;29;20029;-95
2022/11/19 02:33:37;;;;;;;6.30;1.65;;;;;;;-144.40;100.00;60209.53;4859986;29;20021;-93
2022/11/19 02:36:22;;;;;;;10.98;1.92;;;;;;;-144.40;100.00;60209.53;4859763;29;20166;-94
2022/11/19 02:38:52;;;;;;;4.50;1.52;;;;;;;-144.40;100.00;60209.53;4859714;29;20033;-93
2022/11/19 02:41:34;;;;;;;5.10;1.63;;;;;;;-144.40;100.00;60209.53;4859824;29;20025;-94
2022/11/19 02:47:24;;;;;;;8.15;1.75;;;;;;;-144.40;100.00;60209.53;4861051;29;20029;-95
2022/11/19 02:49:55;;;;;;;4.47;1.23;;;;;;;-144.40;100.00;60209.53;4859329;29;20477;-94
2022/11/19 02:52:21;;;;;;;9.00;1.70;;;;;;;-144.40;100.00;60209.53;4859615;29;20492;-93
2022/11/19 02:54:46;;;;;;;8.35;1.98;;;;;;;-144.40;100.00;60209.53;4859244;29;20057;-94
2022/11/19 02:57:12;;;;;;;3.47;1.00;;;;;;;-144.40;100.00;60209.53;4859518;29;20045;-94
2022/11/19 03:05:36;;;;;;;5.85;2.63;;;;;;;-144.40;100.00;60209.53;4842365;29;20530;-96
2022/11/19 03:08:02;;;;;;;8.20;1.23;;;;;;;-144.40;100.00;60209.53;4841260;29;20026;-95
2022/11/19 03:10:38;;;;;;;3.90;1.08;;;;;;;-144.40;100.00;60209.53;4841297;29;20030;-95
2022/11/19 03:16:43;;;;;;;7.00;1.77;;;;;;;-144.40;100.00;60209.53;4848679;29;20045;-95
2022/11/19 03:19:36;;;;;;;8.98;2.05;;;;;;;-144.40;100.00;60209.53;4862885;29;20124;-95
2022/11/19 03:22:08;;;;;;;16.77;2.72;;;;;;;-144.40;100.00;60209.53;4863028;29;20529;-94
2022/11/19 03:24:49;;;;;;;7.18;2.47;;;;;;;-144.40;100.00;60209.53;4863191;29;20041;-95
2022/11/19 03:27:20;;;;;;;7.55;1.77;;;;;;;-144.40;100.00;60209.53;4862691;29;20021;-95
2022/11/19 03:29:50;;;;;;;6.70;1.93;;;;;;;-144.40;100.00;60209.53;4878291;29;20025;-94
2022/11/19 03:32:20;;;;;;;5.82;1.88;;;;;;;-144.40;100.00;60209.53;4863121;29;20536;-96
2022/11/19 03:34:50;;;;;;;5.10;1.70;;;;;;;-144.40;100.00;60209.53;4850235;29;20476;-96
2022/11/19 03:37:20;;;;;;;3.20;1.45;;;;;;;-144.40;100.00;60209.53;4862755;29;20033;-95
2022/11/19 03:39:50;;;;;;;4.35;1.70;;;;;;;-144.40;100.00;60209.53;4844506;29;20505;-94
2022/11/19 03:42:17;;;;;;;6.95;1.75;;;;;;;-144.40;100.00;60209.53;4858508;29;20061;-94
2022/11/19 03:44:47;;;;;;;6.35;1.98;;;;;;;-144.40;100.00;60209.53;4862686;29;20029;-95
2022/11/19 03:47:18;;;;;;;3.38;1.30;;;;;;;-144.40;100.00;60209.53;4845256;29;20058;-94
2022/11/19 03:49:51;;;;;;;12.18;1.83;;;;;;;-144.40;100.00;60209.53;4844101;29;20038;-94
2022/11/19 03:52:19;;;;;;;8.07;2.28;;;;;;;-144.40;100.00;60209.53;4844013;29;20313;-95
2022/11/19 03:54:45;;;;;;;7.90;2.15;;;;;;;-144.40;100.00;60209.53;4860366;29;20581;-95
2022/11/19 03:57:15;;;;;;;7.03;1.58;;;;;;;-144.40;100.00;60209.53;4862499;29;20053;-95
2022/11/19 03:59:41;;;;;;;7.10;1.90;;;;;;;-144.40;100.00;60209.53;4871070;29;20034;-95
2022/11/19 04:02:09;;;;;;;6.70;1.40;;;;;;;-144.40;100.00;60209.53;4855519;29;20018;-94
2022/11/19 04:04:39;;;;;;;6.22;1.60;;;;;;;-144.40;100.00;60209.53;4860019;29;20501;-93
2022/11/19 04:07:16;;;;;;;4.78;1.20;;;;;;;-144.40;100.00;60209.53;4861804;29;20038;-94
2022/11/19 04:09:42;;;;;;;6.57;1.48;;;;;;;-144.40;100.00;60209.53;4862218;29;20374;-94
2022/11/19 04:12:16;;;;;;;10.82;2.00;;;;;;;-144.40;100.00;60209.53;4861910;29;20040;-94
2022/11/19 04:14:42;;;;;;;6.05;1.50;;;;;;;-144.40;100.00;60209.53;4861915;29;20036;-93
2022/11/19 04:17:07;;;;;;;4.30;1.75;;;;;;;-144.40;100.00;60209.53;4863093;29;20030;-93
2022/11/19 04:19:33;;;;;;;7.57;1.38;;;;;;;-144.40;100.00;60209.53;4862077;29;20025;-94
2022/11/19 04:21:58;;;;;;;4.68;1.17;;;;;;;-144.40;100.00;60209.53;4861753;29;20033;-93
2022/11/19 04:24:24;;;;;;;12.85;1.98;;;;;;;-144.40;100.00;60209.53;4861071;29;20395;-93
2022/11/19 04:26:49;;;;;;;8.80;1.90;;;;;;;-144.40;100.00;60209.53;4862663;29;20054;-93
2022/11/19 04:29:15;;;;;;;7.07;1.67;;;;;;;-144.40;100.00;60209.53;4861721;29;20488;-94
2022/11/19 04:31:40;;;;;;;6.60;1.77;;;;;;;-144.40;100.00;60209.53;4861651;29;20080;-93
2022/11/19 04:34:06;;;;;;;3.28;1.48;;;;;;;-144.40;100.00;60209.53;4861534;29;20572;-94
2022/11/19 04:36:32;;;;;;;4.20;1.50;;;;;;;-144.40;100.00;60209.53;4861088;29;20025;-93
2022/11/19 04:38:58;;;;;;;8.88;1.40;;;;;;;-144.40;100.00;60209.53;4861520;29;20093;-93
2022/11/19 04:41:23;;;;;;;8.88;1.60;;;;;;;-144.40;100.00;60209.53;4861499;29;20507;-94
2022/11/19 04:43:49;;;;;;;6.15;1.70;;;;;;;-144.40;100.00;60209.53;4861273;29;20029;-93
2022/11/19 04:46:14;;;;;;;4.95;1.60;;;;;;;-144.40;100.00;60209.53;4861255;29;20030;-94
2022/11/19 04:48:40;;;;;;;5.20;1.20;;;;;;;-144.40;100.00;60209.53;4862112;29;20033;-94
2022/11/19 04:51:05;;;;;;;5.57;1.70;;;;;;;-144.40;100.00;60209.53;4861320;29;20128;-93
2022/11/19 04:53:31;;;;;;;7.30;1.65;;;;;;;-144.40;100.00;60209.53;4861410;29;20032;-94
2022/11/19 04:55:56;;;;;;;10.60;2.10;;;;;;;-144.40;100.00;60209.53;4861216;29;20350;-94
2022/11/19 04:58:22;;;;;;;13.63;2.00;;;;;;;-144.40;100.00;60209.53;4861008;29;20034;-93
2022/11/19 05:00:47;;;;;;;7.18;1.90;;;;;;;-144.40;100.00;60209.53;4861160;29;20033;-93
2022/11/19 05:03:13;;;;;;;9.10;2.22;;;;;;;-144.40;100.00;60209.53;4861073;29;20041;-93
2022/11/19 05:05:38;;;;;;;6.43;1.65;;;;;;;-144.40;100.00;60209.53;4860715;29;20056;-94
2022/11/19 05:08:04;;;;;;;8.85;1.65;;;;;;;-144.40;100.00;60209.53;4860797;29;20373;-93
2022/11/19 05:10:30;;;;;;;4.90;1.63;;;;;;;-144.40;100.00;60209.53;4860799;29;20022;-93
2022/11/19 05:12:56;;;;;;;7.20;1.45;;;;;;;-144.40;100.00;60209.53;4860707;29;20099;-93
2022/11/19 05:15:21;;;;;;;6.45;1.48;;;;;;;-144.40;100.00;60209.53;4860786;29;20033;-93
2022/11/19 05:17:47;;;;;;;14.88;4.60;;;;;;;-144.40;100.00;60209.53;4860876;29;20036;-93
2022/11/19 05:20:12;;;;;;;10.70;2.10;;;;;;;-144.40;100.00;60209.53;4860522;29;20048;-93
2022/11/19 05:22:38;;;;;;;6.93;1.85;;;;;;;-144.40;100.00;60209.53;4860214;29;20485;-94
2022/11/19 05:25:04;;;;;;;6.30;1.70;;;;;;;-144.40;100.00;60209.53;4861922;29;20033;-93
2022/11/19 05:27:29;;;;;;;5.70;1.60;;;;;;;-144.40;100.00;60209.53;4861911;29;20504;-93
2022/11/19 05:29:55;;;;;;;4.60;1.60;;;;;;;-144.40;100.00;60209.53;4861453;29;20037;-94
2022/11/19 05:32:20;;;;;;;6.95;1.58;;;;;;;-144.40;100.00;60209.53;4861527;29;20033;-94
2022/11/19 05:34:46;;;;;;;5.07;1.58;;;;;;;-144.40;100.00;60209.53;4860055;29;20174;-93
2022/11/19 05:37:11;;;;;;;8.05;1.70;;;;;;;-144.40;100.00;60209.53;4861394;29;20481;-93
2022/11/19 05:39:37;;;;;;;6.53;1.83;;;;;;;-144.40;100.00;60209.53;4861461;29;20157;-94
2022/11/19 05:42:02;;;;;;;8.98;1.42;;;;;;;-144.40;100.00;60209.53;4859938;29;20044;-93
2022/11/19 05:44:28;;;;;;;3.97;1.58;;;;;;;-144.40;100.00;60209.53;4859721;29;20485;-93
2022/11/19 05:46:55;;;;;;;7.93;2.60;;;;;;;-144.40;100.00;60209.53;4860224;29;20029;-93
2022/11/19 05:49:21;;;;;;;6.50;1.35;;;;;;;-144.40;100.00;60209.53;4859885;29;20425;-93
2022/11/19 05:51:46;;;;;;;14.70;2.95;;;;;;;-144.40;100.00;60209.53;4860268;29;20066;-93
2022/11/19 05:54:12;;;;;;;3.10;1.33;;;;;;;-144.40;100.00;60209.53;4859967;29;20030;-92
2022/11/19 05:56:37;;;;;;;8.88;1.50;;;;;;;-144.40;100.00;60209.53;4859829;29;20037;-94
2022/11/19 05:59:03;;;;;;;6.03;1.60;;;;;;;-144.40;100.00;60209.53;4859840;29;20034;-93
2022/11/19 06:01:29;;;;;;;6.22;1.98;;;;;;;-144.40;100.00;60209.53;4859879;29;20469;-92
2022/11/19 06:03:55;;;;;;;4.78;1.58;;;;;;;-144.40;100.00;60209.53;4860703;29;20030;-93
2022/11/19 06:06:21;;;;;;;4.82;1.33;;;;;;;-144.40;100.00;60209.53;4859695;29;20037;-93
2022/11/19 06:08:48;;;;;;;5.47;1.52;;;;;;;-144.40;100.00;60209.53;4859764;29;20089;-93
2022/11/19 06:13:59;;;;;;;8.30;1.52;;;;;;;-144.40;100.00;60209.53;4861228;29;20037;-93
2022/11/19 06:16:25;;;;;;;6.82;1.30;;;;;;;-144.40;100.00;60209.53;4859499;29;20049;-94
2022/11/19 06:18:50;;;;;;;2.58;1.08;;;;;;;-144.40;100.00;60209.53;4859727;29;20489;-93
2022/11/19 06:21:16;;;;;;;4.95;1.58;;;;;;;-144.40;100.00;60209.53;4859748;29;20037;-94
2022/11/19 06:23:41;;;;;;;3.20;1.40;;;;;;;-144.40;100.00;60209.53;4860811;29;20373;-92
2022/11/19 06:26:08;;;;;;;9.43;1.52;;;;;;;-144.40;100.00;60209.53;4860546;29;20049;-94
2022/11/19 06:28:33;;;;;;;4.47;1.42;;;;;;;-144.40;100.00;60209.53;4859554;29;20065;-93
2022/11/19 06:30:59;;;;;;;6.47;2.25;;;;;;;-144.40;100.00;60209.53;4859320;29;20025;-93
2022/11/19 06:33:24;;;;;;;6.97;1.40;;;;;;;-144.40;100.00;60209.53;4859530;29;20366;-93
2022/11/19 06:35:49;;;;;;;3.30;1.45;;;;;;;-144.40;100.00;60209.53;4859226;29;20021;-93
2022/11/19 06:38:15;;;;;;;4.93;1.40;;;;;;;-144.40;100.00;60209.53;4859427;29;20042;-94
2022/11/19 06:40:44;;;;;;;10.05;1.75;;;;;;;-144.40;100.00;60209.53;4860455;29;20465;-93
2022/11/19 06:43:09;;;;;;;5.82;1.38;;;;;;;-144.40;100.00;60209.53;4859312;29;20038;-93
2022/11/19 06:45:35;;;;;;;11.80;2.00;;;;;;;-144.40;100.00;60209.53;4859017;29;20025;-93
2022/11/19 06:48:01;;;;;;;7.30;1.70;;;;;;;-144.40;100.00;60209.53;4858707;29;20033;-93
2022/11/19 06:50:26;;;;;;;6.43;1.50;;;;;;;-144.40;100.00;60209.53;4859139;29;20032;-93
2022/11/19 06:52:52;;;;;;;5.88;1.35;;;;;;;-144.40;100.00;60209.53;4859241;29;20136;-92
2022/11/19 06:55:17;;;;;;;5.40;1.40;;;;;;;-144.40;100.00;60209.53;4859966;29;20035;-93
2022/11/19 06:57:43;;;;;;;3.70;1.30;;;;;;;-144.40;100.00;60209.53;4858887;29;20080;-93
2022/11/19 07:00:09;;;;;;;6.45;1.40;;;;;;;-144.40;100.00;60209.53;4858980;29;20025;-92
2022/11/19 07:02:35;;;;;;;8.30;1.55;;;;;;;-144.40;100.00;60209.53;4859015;29;20029;-93
2022/11/19 07:05:00;;;;;;;4.60;1.40;;;;;;;-144.40;100.00;60209.53;4860033;29;20041;-93
2022/11/19 07:07:26;;;;;;;5.93;1.40;;;;;;;-144.40;100.00;60209.53;4858994;29;20030;-93
2022/11/19 07:09:51;;;;;;;4.45;0.90;;;;;;;-144.40;100.00;60209.53;4858990;29;20034;-93
2022/11/19 07:12:17;;;;;;;9.70;1.20;;;;;;;-144.40;100.00;60209.53;4858877;29;20120;-92
2022/11/19 07:14:42;;;;;;;10.85;1.77;;;;;;;-144.40;100.00;60209.53;4858727;29;20489;-94
2022/11/19 07:17:08;;;;;;;6.47;1.40;;;;;;;-144.40;100.00;60209.53;4858970;29;20029;-94
2022/11/19 07:19:33;;;;;;;9.13;2.05;;;;;;;-144.40;100.00;60209.53;4859981;29;20049;-93
2022/11/19 07:21:59;;;;;;;3.95;1.30;;;;;;;-144.40;100.00;60209.53;4858769;29;20093;-93
2022/11/19 07:24:25;;;;;;;5.15;1.30;;;;;;;-144.40;100.00;60209.53;4858101;29;20041;-94
2022/11/19 07:26:51;;;;;;;5.05;1.13;;;;;;;-144.40;100.00;60209.53;4857732;29;20030;-93
2022/11/19 07:29:16;;;;;;;11.43;2.65;;;;;;;-144.40;100.00;60209.53;4853889;29;20451;-93
2022/11/19 07:31:42;;;;;;;5.65;2.05;;;;;;;-144.40;100.00;60209.53;4839954;29;20058;-93
2022/11/19 07:34:09;;;;;;;7.75;2.08;;;;;;;-144.40;100.00;60209.53;4871557;29;20097;-94
2022/11/19 07:36:35;;;;;;;12.77;2.38;;;;;;;-144.40;100.00;60209.53;4858298;29;20086;-94
2022/11/19 07:39:01;;;;;;;5.90;2.17;;;;;;;-144.40;100.00;60209.53;4859937;29;20361;-94
2022/11/19 07:44:11;;;;;;;5.90;2.13;;;;;;;-144.40;100.00;60209.53;4850183;29;20053;-94
2022/11/19 07:46:36;;;;;;;5.95;2.28;;;;;;;-144.40;100.00;60209.53;4839982;29;20030;-93
2022/11/19 07:49:03;;;;;;;5.68;2.10;;;;;;;-144.40;100.00;60209.53;4845010;29;20074;-93
2022/11/19 07:51:28;;;;;;;8.15;2.60;;;;;;;-144.40;100.00;60209.53;4855776;29;20029;-94
2022/11/19 07:53:54;;;;;;;8.50;1.40;;;;;;;-144.40;100.00;60209.53;4851346;29;20040;-94
2022/11/19 07:56:20;;;;;;;6.68;2.15;;;;;;;-144.40;100.00;60209.53;4859441;29;20528;-94
2022/11/19 07:58:46;;;;;;;13.20;3.70;;;;;;;-144.40;100.00;60209.53;4858452;29;20124;-93
2022/11/19 08:01:17;;;;;;;8.55;2.22;;;;;;;-144.40;100.00;60209.53;4861415;29;20121;-93
2022/11/19 08:03:45;;;;;;;6.47;1.92;;;;;;;-144.40;100.00;60209.53;4861440;29;20022;-93
2022/11/19 08:06:11;;;;;;;4.68;1.75;;;;;;;-144.40;100.00;60209.53;4861553;29;20042;-91
2022/11/19 08:08:37;;;;;;;6.13;1.85;;;;;;;-144.40;100.00;60209.53;4863789;29;20364;-95
2022/11/19 08:11:05;;;;;;;7.75;2.42;;;;;;;-144.40;100.00;60209.53;4861997;29;20397;-94
2022/11/19 08:13:31;;;;;;;11.68;3.17;;;;;;;-144.40;100.00;60209.53;4861361;29;20112;-92
2022/11/19 08:16:02;;;;;;;13.13;2.45;;;;;;;-144.40;100.00;60209.53;4861249;29;20061;-93
2022/11/19 08:18:28;;;;;;;9.82;2.60;;;;;;;-144.40;100.00;60209.53;4861458;29;20459;-94
2022/11/19 08:20:53;;;;;;;5.55;2.45;;;;;;;-144.40;100.00;60209.53;4861204;29;20078;-91
2022/11/19 08:23:19;;;;;;;4.78;2.08;;;;;;;-144.40;100.00;60209.53;4862299;29;20049;-93
2022/11/19 08:25:45;;;;;;;6.47;1.92;;;;;;;-144.40;100.00;60209.53;4861920;29;20469;-94
2022/11/19 08:28:10;;;;;;;4.07;1.52;;;;;;;-144.40;100.00;60209.53;4861980;29;20034;-94
2022/11/19 08:30:40;;;;;;;11.32;1.50;;;;;;;-144.40;100.00;60209.53;4861690;29;20033;-94
2022/11/19 08:33:07;;;;;;;9.50;2.00;;;;;;;-144.40;100.00;60209.53;4861638;29;20084;-93
2022/11/19 08:35:32;;;;;;;5.88;2.22;;;;;;;-144.40;100.00;60209.53;4860689;29;20120;-94
2022/11/19 08:37:58;;;;;;;6.47;2.50;;;;;;;-144.40;100.00;60209.53;4861688;29;20061;-95
2022/11/19 08:40:24;;;;;;;10.10;2.40;;;;;;;-144.40;100.00;60209.53;4861777;29;20037;-95
2022/11/19 08:42:59;;;;;;;12.00;2.95;;;;;;;-144.40;100.00;60209.53;4861477;29;20508;-94
2022/11/19 08:45:29;;;;;;;7.75;2.88;;;;;;;-144.40;100.00;60209.53;4860612;29;20033;-95
2022/11/19 08:47:56;;;;;;;9.38;2.67;;;;;;;-144.40;100.00;60209.53;4861482;29;20025;-93
2022/11/19 08:50:22;;;;;;;10.10;2.92;;;;;;;-144.40;100.00;60209.53;4876090;29;20069;-96
2022/11/19 08:53:00;;;;;;;9.20;2.85;;;;;;;-144.40;100.00;60209.53;4864457;29;20029;-96
2022/11/19 08:55:27;;;;;;;9.55;3.13;;;;;;;-144.40;100.00;60209.53;4865642;29;20029;-94
2022/11/19 08:57:59;;;;;;;14.68;3.25;;;;;;;-144.40;100.00;60209.53;4865381;29;20034;-95
2022/11/19 09:00:24;;;;;;;17.02;3.08;;;;;;;-144.40;100.00;60209.53;4864528;29;20037;-94
2022/11/19 09:02:50;;;;;;;9.65;2.08;;;;;;;-144.40;100.00;60209.53;4880259;29;20026;-95
2022/11/19 09:05:16;;;;;;;15.13;3.83;;;;;;;-144.40;100.00;60209.53;4869917;29;20062;-95
2022/11/19 09:07:41;;;;;;;11.10;2.60;;;;;;;-144.40;100.00;60209.53;4868312;29;20030;-95
2022/11/19 09:10:07;;;;;;;8.23;2.72;;;;;;;-144.40;100.00;60209.53;4868675;29;20035;-95
2022/11/19 09:12:33;;;;;;;11.43;3.25;;;;;;;-144.40;100.00;60209.53;4867991;29;20397;-95
2022/11/19 09:14:59;;;;;;;18.70;3.67;;;;;;;-144.40;100.00;60209.53;4865425;29;20049;-96
2022/11/19 09:17:24;;;;;;;6.82;3.13;;;;;;;-144.40;100.00;60209.53;4864889;29;20033;-93
2022/11/19 09:19:49;;;;;;;9.73;2.92;;;;;;;-144.40;100.00;60209.53;4865830;29;20032;-94
2022/11/19 09:22:15;;;;;;;10.75;3.60;;;;;;;-144.40;100.00;60209.53;4863032;29;20097;-93
2022/11/19 09:24:40;;;;;;;12.23;3.72;;;;;;;-144.40;100.00;60209.53;4861362;29;20489;-92
2022/11/19 09:27:06;;;;;;;13.55;4.15;;;;;;;-144.40;100.00;60209.53;4861265;29;20025;-93
2022/11/19 09:29:31;;;;;;;10.20;3.50;;;;;;;-144.40;100.00;60209.53;4860011;29;20038;-94
2022/11/19 09:31:57;;;;;;;10.68;5.38;;;;;;;-144.40;100.00;60209.53;4859812;29;20042;-94
2022/11/19 09:34:23;;;;;;;9.43;3.42;;;;;;;-144.40;100.00;60209.53;4859965;29;20311;-93
2022/11/19 09:36:48;;;;;;;9.60;3.72;;;;;;;-144.40;100.00;60209.53;4862018;29;20086;-94
2022/11/19 09:39:13;;;;;;;10.85;2.55;;;;;;;-144.40;100.00;60209.53;4863225;29;20041;-93
2022/11/19 09:41:45;;;;;;;12.32;4.45;;;;;;;-144.40;100.00;60209.53;4864699;29;20116;-93
2022/11/19 09:44:48;;;;;;;13.30;4.15;;;;;;;-144.40;100.00;60209.53;4865862;29;20041;-93
2022/11/19 09:47:32;;;;;;;11.35;3.70;;;;;;;-144.40;100.00;60209.53;4879667;29;20407;-94
2022/11/19 09:50:21;;;;;;;10.00;2.75;;;;;;;-144.40;100.00;60209.53;4863555;29;20045;-93
2022/11/19 09:52:53;;;;;;;10.82;3.25;;;;;;;-144.40;100.00;60209.53;4866784;29;20029;-91
2022/11/19 09:55:31;;;;;;;8.40;2.20;;;;;;;-144.40;100.00;60209.53;4862973;29;20168;-93
2022/11/19 09:57:59;;;;;;;8.43;2.13;;;;;;;-144.40;100.00;60209.53;4863142;29;20181;-93
2022/11/19 10:00:28;;;;;;;10.88;2.10;;;;;;;-144.40;100.00;60209.53;4861490;29;20057;-93
2022/11/19 10:02:55;;;;;;;8.85;2.17;;;;;;;-144.40;100.00;60209.53;4860445;29;20458;-94
2022/11/19 10:05:38;;;;;;;7.57;2.50;;;;;;;-144.40;100.00;60209.53;4860747;29;20025;-94
2022/11/19 10:08:49;;;;;;;12.55;2.22;;;;;;;-144.40;100.00;60209.53;4861855;29;20033;-92
2022/11/19 10:11:28;;;;;;;10.10;2.00;;;;;;;-144.40;100.00;60209.53;4862984;29;20060;-91
2022/11/19 10:14:13;;;;;;;10.25;2.03;;;;;;;-144.40;100.00;60209.53;4861802;29;20029;-95
2022/11/19 10:16:47;;;;;;;14.38;2.75;;;;;;;-144.40;100.00;60209.53;4844359;29;20026;-93
2022/11/19 10:19:31;;;;;;;11.80;2.83;;;;;;;-144.40;100.00;60209.53;4861575;29;20029;-94
2022/11/19 10:22:00;;;;;;;10.40;2.55;;;;;;;-144.40;100.00;60209.53;4860810;29;20041;-96
2022/11/19 10:24:37;;;;;;;9.68;2.95;;;;;;;-144.40;100.00;60209.53;4862371;29;20077;-93
2022/11/19 10:27:15;;;;;;;7.32;2.45;;;;;;;-144.40;100.00;60209.53;4861926;29;20022;-96
2022/11/19 10:29:41;;;;;;;7.75;2.08;;;;;;;-144.40;100.00;60209.53;4860336;29;20197;-92
2022/11/19 10:32:20;;;;;;;9.45;2.25;;;;;;;-144.40;100.00;60209.53;4861634;29;20061;-96
2022/11/19 10:34:50;;;;;;;13.77;2.03;;;;;;;-144.40;100.00;60209.53;4861183;29;20036;-95
2022/11/19 10:37:20;;;;;;;8.88;1.88;;;;;;;-144.40;100.00;60209.53;4877485;29;20025;-95
2022/11/19 10:40:12;;;;;;;15.90;2.30;;;;;;;-144.40;100.00;60209.53;4860304;29;20037;-95
2022/11/19 10:42:41;;;;;;;9.88;1.90;;;;;;;-144.40;100.00;60209.53;4860079;29;20381;-95
2022/11/19 10:45:20;;;;;;;28.35;2.53;;;;;;;-144.40;100.00;60209.53;4860278;29;20029;-96
2022/11/19 10:48:08;;;;;;;7.15;2.20;;;;;;;-144.40;100.00;60209.53;4857169;29;20036;-95
2022/11/19 10:50:33;;;;;;;5.80;1.33;;;;;;;-144.40;100.00;60209.53;4861715;29;20029;-95
2022/11/19 10:53:10;;;;;;;9.05;2.08;;;;;;;-144.40;100.00;60209.53;4863388;29;20044;-95
2022/11/19 10:55:46;;;;;;;11.32;2.35;;;;;;;-144.40;100.00;60209.53;4867561;29;20022;-95
2022/11/19 10:58:33;;;;;;;7.95;2.33;;;;;;;-144.40;100.00;60209.53;4847142;29;20032;-92
2022/11/19 11:01:02;;;;;;;13.40;2.33;;;;;;;-144.40;100.00;60209.53;4851557;29;20076;-95
2022/11/19 11:03:41;;;;;;;7.93;2.17;;;;;;;-144.40;100.00;60209.53;4859121;29;20044;-92
2022/11/19 11:06:08;;;;;;;7.80;1.90;;;;;;;-144.40;100.00;60209.53;4858981;29;20037;-91
2022/11/19 11:08:48;;;;;;;10.48;1.83;;;;;;;-144.40;100.00;60209.53;4858495;29;20036;-92
2022/11/19 11:11:22;;;;;;;7.85;1.98;;;;;;;-144.40;100.00;60209.53;4859051;29;20058;-94
2022/11/19 11:16:43;;;;;;;8.70;2.03;;;;;;;-144.40;100.00;60209.53;4850755;29;20041;-95
2022/11/19 11:19:29;;;;;;;7.40;1.98;;;;;;;-144.40;100.00;60209.53;4864031;29;20037;-95
2022/11/19 11:21:56;;;;;;;10.00;2.38;;;;;;;-144.40;100.00;60209.53;4859557;29;20400;-93
2022/11/19 11:24:35;;;;;;;15.00;3.03;;;;;;;-144.40;100.00;60209.53;4848645;29;20039;-91
2022/11/19 11:27:25;;;;;;;11.10;2.08;;;;;;;-144.40;100.00;60209.53;4860755;29;20144;-94
2022/11/19 11:30:05;;;;;;;8.80;1.80;;;;;;;-144.40;100.00;60209.53;4858945;29;20034;-94
2022/11/19 11:32:31;;;;;;;6.93;1.58;;;;;;;-144.40;100.00;60209.53;4860511;29;20025;-94
2022/11/19 11:34:57;;;;;;;6.90;1.70;;;;;;;-144.40;100.00;60209.53;4862141;29;20022;-94
2022/11/19 11:37:25;;;;;;;9.25;1.80;;;;;;;-144.40;100.00;60209.53;4859325;29;20036;-94